Terminal Aerodrome Forecast
Issued by NWS

Home | Current Version | Previous Version | Text Only | Print | Product List | Glossary On
Versions: 1 2 3 4 5 6 7 8 9 10 11 12 13 14 15 16 17 18 19 20 21 22 23 24 25 26 27 28 29
000
FTUS45 KREV 210538
TAFRNO
TAF
KRNO 210538Z 2106/2206 21020G38KT 6SM -RA SCT010 BKN020 OVC035
      WS015/24050KT
     FM211000 25025G45KT P6SM VCSH SCT020 OVC040 WS020/25045KT
     FM211700 25014G22KT 4SM -SNRA SCT015 OVC025
     FM220000 27011G16KT 6SM -SHSNRA SCT020 OVC035=

USA.gov is the U.S. government's official web portal to all federal, state and local government web resources and services.